sensor_id;sensor_type;location;lat;lon;timestamp;P1;durP1;ratioP1;P2;durP2;ratioP2
75680;SDS011;64294;49.176;16.626;2022-12-18T07:30:56;25.92;;;10.38;;
75680;SDS011;64294;49.176;16.626;2022-12-18T07:33:21;26.70;;;10.75;;
75680;SDS011;64294;49.176;16.626;2022-12-18T07:35:47;33.97;;;12.35;;
75680;SDS011;64294;49.176;16.626;2022-12-18T07:38:12;34.03;;;11.68;;
75680;SDS011;64294;49.176;16.626;2022-12-18T07:40:37;30.33;;;11.98;;
75680;SDS011;64294;49.176;16.626;2022-12-18T07:43:03;28.33;;;11.95;;
75680;SDS011;64294;49.176;16.626;2022-12-18T07:45:30;28.85;;;12.40;;
75680;SDS011;64294;49.176;16.626;2022-12-18T07:47:55;31.85;;;11.02;;
75680;SDS011;64294;49.176;16.626;2022-12-18T07:50:20;28.95;;;11.13;;
75680;SDS011;64294;49.176;16.626;2022-12-18T07:52:45;32.17;;;11.85;;
75680;SDS011;64294;49.176;16.626;2022-12-18T07:55:11;29.98;;;12.13;;
75680;SDS011;64294;49.176;16.626;2022-12-18T07:57:36;27.73;;;11.70;;
75680;SDS011;64294;49.176;16.626;2022-12-18T08:00:02;31.95;;;12.48;;
75680;SDS011;64294;49.176;16.626;2022-12-18T08:02:31;27.80;;;11.15;;
75680;SDS011;64294;49.176;16.626;2022-12-18T08:04:57;30.75;;;12.27;;
75680;SDS011;64294;49.176;16.626;2022-12-18T08:07:22;26.55;;;11.02;;
75680;SDS011;64294;49.176;16.626;2022-12-18T08:09:48;29.92;;;12.48;;
75680;SDS011;64294;49.176;16.626;2022-12-18T08:12:13;27.45;;;11.10;;
75680;SDS011;64294;49.176;16.626;2022-12-18T08:14:38;47.63;;;18.48;;
75680;SDS011;64294;49.176;16.626;2022-12-18T08:17:04;35.78;;;14.98;;
75680;SDS011;64294;49.176;16.626;2022-12-18T08:19:29;28.92;;;12.70;;
75680;SDS011;64294;49.176;16.626;2022-12-18T08:21:55;30.27;;;12.30;;
75680;SDS011;64294;49.176;16.626;2022-12-18T08:24:20;28.80;;;12.30;;
75680;SDS011;64294;49.176;16.626;2022-12-18T08:26:45;25.10;;;11.00;;
75680;SDS011;64294;49.176;16.626;2022-12-18T08:29:11;27.02;;;11.50;;
75680;SDS011;64294;49.176;16.626;2022-12-18T08:31:36;26.95;;;11.23;;
75680;SDS011;64294;49.176;16.626;2022-12-18T08:34:02;27.08;;;11.80;;
75680;SDS011;64294;49.176;16.626;2022-12-18T08:36:27;35.08;;;15.68;;
75680;SDS011;64294;49.176;16.626;2022-12-18T08:38:53;31.30;;;12.85;;
75680;SDS011;64294;49.176;16.626;2022-12-18T08:41:19;33.00;;;12.48;;
75680;SDS011;64294;49.176;16.626;2022-12-18T08:43:45;32.03;;;12.40;;
75680;SDS011;64294;49.176;16.626;2022-12-18T08:46:32;43.50;;;16.50;;
75680;SDS011;64294;49.176;16.626;2022-12-18T08:48:59;31.40;;;12.82;;
75680;SDS011;64294;49.176;16.626;2022-12-18T08:51:25;29.80;;;12.25;;
75680;SDS011;64294;49.176;16.626;2022-12-18T08:53:50;34.22;;;12.70;;
75680;SDS011;64294;49.176;16.626;2022-12-18T08:56:16;31.30;;;12.50;;
75680;SDS011;64294;49.176;16.626;2022-12-18T08:58:41;36.28;;;14.63;;
75680;SDS011;64294;49.176;16.626;2022-12-18T09:01:08;39.00;;;13.63;;
75680;SDS011;64294;49.176;16.626;2022-12-18T09:03:35;35.85;;;13.82;;
75680;SDS011;64294;49.176;16.626;2022-12-18T09:06:00;33.50;;;13.13;;
75680;SDS011;64294;49.176;16.626;2022-12-18T09:08:26;30.45;;;12.07;;
75680;SDS011;64294;49.176;16.626;2022-12-18T09:10:52;33.15;;;14.05;;
75680;SDS011;64294;49.176;16.626;2022-12-18T09:13:18;34.30;;;13.50;;
75680;SDS011;64294;49.176;16.626;2022-12-18T09:15:45;40.28;;;14.82;;
75680;SDS011;64294;49.176;16.626;2022-12-18T09:18:12;50.60;;;17.40;;
75680;SDS011;64294;49.176;16.626;2022-12-18T09:20:38;53.45;;;18.63;;
75680;SDS011;64294;49.176;16.626;2022-12-18T09:23:04;60.25;;;22.35;;
75680;SDS011;64294;49.176;16.626;2022-12-18T09:25:30;70.00;;;25.50;;
75680;SDS011;64294;49.176;16.626;2022-12-18T09:27:58;72.22;;;30.08;;
75680;SDS011;64294;49.176;16.626;2022-12-18T09:30:47;90.18;;;47.13;;
75680;SDS011;64294;49.176;16.626;2022-12-18T09:33:14;80.50;;;31.30;;
75680;SDS011;64294;49.176;16.626;2022-12-18T09:35:40;131.85;;;79.55;;
75680;SDS011;64294;49.176;16.626;2022-12-18T09:38:06;77.75;;;38.92;;
75680;SDS011;64294;49.176;16.626;2022-12-18T09:40:39;72.50;;;29.58;;
75680;SDS011;64294;49.176;16.626;2022-12-18T09:43:53;61.83;;;21.27;;
75680;SDS011;64294;49.176;16.626;2022-12-18T09:46:17;109.80;;;61.25;;
75680;SDS011;64294;49.176;16.626;2022-12-18T09:48:50;61.55;;;23.20;;
75680;SDS011;64294;49.176;16.626;2022-12-18T09:51:21;87.15;;;38.92;;
75680;SDS011;64294;49.176;16.626;2022-12-18T09:54:00;177.95;;;101.90;;
75680;SDS011;64294;49.176;16.626;2022-12-18T09:56:31;217.38;;;146.27;;
75680;SDS011;64294;49.176;16.626;2022-12-18T09:59:02;60.53;;;21.38;;
75680;SDS011;64294;49.176;16.626;2022-12-18T10:01:29;64.75;;;22.23;;
75680;SDS011;64294;49.176;16.626;2022-12-18T10:03:56;278.70;;;198.20;;
75680;SDS011;64294;49.176;16.626;2022-12-18T10:06:32;85.88;;;34.53;;
75680;SDS011;64294;49.176;16.626;2022-12-18T10:09:25;84.68;;;35.00;;
75680;SDS011;64294;49.176;16.626;2022-12-18T10:17:37;185.23;;;101.93;;
75680;SDS011;64294;49.176;16.626;2022-12-18T10:20:20;261.25;;;149.15;;
75680;SDS011;64294;49.176;16.626;2022-12-18T10:28:25;88.03;;;34.95;;
75680;SDS011;64294;49.176;16.626;2022-12-18T10:30:51;87.90;;;33.58;;
75680;SDS011;64294;49.176;16.626;2022-12-18T10:33:21;61.33;;;21.60;;
75680;SDS011;64294;49.176;16.626;2022-12-18T10:35:52;108.28;;;45.35;;
75680;SDS011;64294;49.176;16.626;2022-12-18T10:41:03;90.30;;;36.00;;
75680;SDS011;64294;49.176;16.626;2022-12-18T10:46:46;67.25;;;27.80;;
75680;SDS011;64294;49.176;16.626;2022-12-18T10:49:21;62.30;;;23.38;;
75680;SDS011;64294;49.176;16.626;2022-12-18T10:51:50;70.40;;;30.05;;
75680;SDS011;64294;49.176;16.626;2022-12-18T10:54:28;56.40;;;20.98;;
75680;SDS011;64294;49.176;16.626;2022-12-18T10:57:13;64.93;;;24.13;;
75680;SDS011;64294;49.176;16.626;2022-12-18T10:59:51;62.05;;;23.13;;
75680;SDS011;64294;49.176;16.626;2022-12-18T11:02:39;67.78;;;27.38;;
75680;SDS011;64294;49.176;16.626;2022-12-18T11:05:22;61.60;;;21.10;;
75680;SDS011;64294;49.176;16.626;2022-12-18T11:07:52;61.80;;;19.67;;
75680;SDS011;64294;49.176;16.626;2022-12-18T11:10:20;50.05;;;18.00;;
75680;SDS011;64294;49.176;16.626;2022-12-18T11:12:47;61.45;;;19.80;;
75680;SDS011;64294;49.176;16.626;2022-12-18T11:15:16;71.93;;;25.58;;
75680;SDS011;64294;49.176;16.626;2022-12-18T11:17:54;58.20;;;20.52;;
75680;SDS011;64294;49.176;16.626;2022-12-18T11:20:30;62.45;;;23.08;;
75680;SDS011;64294;49.176;16.626;2022-12-18T11:23:01;70.22;;;33.53;;
75680;SDS011;64294;49.176;16.626;2022-12-18T11:25:29;57.63;;;19.85;;
75680;SDS011;64294;49.176;16.626;2022-12-18T11:27:59;84.63;;;35.25;;
75680;SDS011;64294;49.176;16.626;2022-12-18T11:30:28;79.28;;;38.08;;
75680;SDS011;64294;49.176;16.626;2022-12-18T11:35:57;76.40;;;31.70;;
75680;SDS011;64294;49.176;16.626;2022-12-18T11:38:29;66.93;;;26.02;;
75680;SDS011;64294;49.176;16.626;2022-12-18T11:41:00;352.33;;;247.00;;
75680;SDS011;64294;49.176;16.626;2022-12-18T11:46:17;68.70;;;24.85;;
75680;SDS011;64294;49.176;16.626;2022-12-18T11:48:50;85.78;;;43.80;;
75680;SDS011;64294;49.176;16.626;2022-12-18T11:53:54;63.50;;;25.08;;
75680;SDS011;64294;49.176;16.626;2022-12-18T11:56:26;80.63;;;30.48;;
75680;SDS011;64294;49.176;16.626;2022-12-18T11:58:57;55.58;;;21.45;;
75680;SDS011;64294;49.176;16.626;2022-12-18T12:17:45;65.95;;;26.75;;
75680;SDS011;64294;49.176;16.626;2022-12-18T12:38:51;65.07;;;24.40;;
75680;SDS011;64294;49.176;16.626;2022-12-18T12:41:23;53.17;;;20.13;;
75680;SDS011;64294;49.176;16.626;2022-12-18T12:44:22;63.28;;;20.80;;
75680;SDS011;64294;49.176;16.626;2022-12-18T12:46:51;77.55;;;40.28;;
75680;SDS011;64294;49.176;16.626;2022-12-18T12:49:20;82.10;;;37.75;;
75680;SDS011;64294;49.176;16.626;2022-12-18T12:54:31;88.68;;;42.03;;
75680;SDS011;64294;49.176;16.626;2022-12-18T13:05:14;67.32;;;30.85;;
75680;SDS011;64294;49.176;16.626;2022-12-18T13:07:52;107.25;;;47.53;;
75680;SDS011;64294;49.176;16.626;2022-12-18T13:10:24;151.18;;;70.82;;
75680;SDS011;64294;49.176;16.626;2022-12-18T13:13:10;71.80;;;31.77;;
75680;SDS011;64294;49.176;16.626;2022-12-18T13:15:41;150.43;;;67.32;;
75680;SDS011;64294;49.176;16.626;2022-12-18T13:20:40;63.60;;;23.55;;
75680;SDS011;64294;49.176;16.626;2022-12-18T13:26:31;55.90;;;21.05;;
75680;SDS011;64294;49.176;16.626;2022-12-18T13:31:11;59.65;;;22.23;;
75680;SDS011;64294;49.176;16.626;2022-12-18T13:33:42;69.50;;;30.13;;
75680;SDS011;64294;49.176;16.626;2022-12-18T13:38:46;55.80;;;20.25;;
75680;SDS011;64294;49.176;16.626;2022-12-18T13:41:26;58.75;;;23.27;;
75680;SDS011;64294;49.176;16.626;2022-12-18T13:43:53;64.32;;;21.80;;
75680;SDS011;64294;49.176;16.626;2022-12-18T13:48:56;55.13;;;22.42;;
75680;SDS011;64294;49.176;16.626;2022-12-18T13:51:26;66.15;;;23.95;;
75680;SDS011;64294;49.176;16.626;2022-12-18T13:53:58;65.15;;;22.88;;
75680;SDS011;64294;49.176;16.626;2022-12-18T13:56:32;62.30;;;21.42;;
75680;SDS011;64294;49.176;16.626;2022-12-18T14:01:33;87.18;;;34.92;;
75680;SDS011;64294;49.176;16.626;2022-12-18T14:04:08;60.60;;;23.13;;
75680;SDS011;64294;49.176;16.626;2022-12-18T14:06:42;52.40;;;20.23;;
75680;SDS011;64294;49.176;16.626;2022-12-18T14:09:10;54.60;;;18.70;;
75680;SDS011;64294;49.176;16.626;2022-12-18T14:11:38;54.40;;;20.25;;
75680;SDS011;64294;49.176;16.626;2022-12-18T14:14:04;85.22;;;41.13;;
75680;SDS011;64294;49.176;16.626;2022-12-18T14:16:32;77.07;;;32.53;;
75680;SDS011;64294;49.176;16.626;2022-12-18T14:18:58;68.05;;;28.75;;
75680;SDS011;64294;49.176;16.626;2022-12-18T14:21:28;55.55;;;20.83;;
75680;SDS011;64294;49.176;16.626;2022-12-18T14:26:39;91.88;;;49.20;;
75680;SDS011;64294;49.176;16.626;2022-12-18T14:29:21;70.57;;;26.33;;
75680;SDS011;64294;49.176;16.626;2022-12-18T14:32:03;62.70;;;20.58;;
75680;SDS011;64294;49.176;16.626;2022-12-18T14:34:34;52.33;;;18.00;;
75680;SDS011;64294;49.176;16.626;2022-12-18T14:36:59;65.97;;;25.92;;
75680;SDS011;64294;49.176;16.626;2022-12-18T14:39:25;58.55;;;20.52;;
75680;SDS011;64294;49.176;16.626;2022-12-18T14:41:50;50.70;;;18.45;;
75680;SDS011;64294;49.176;16.626;2022-12-18T14:44:16;65.63;;;23.25;;
75680;SDS011;64294;49.176;16.626;2022-12-18T14:46:45;134.38;;;79.88;;
75680;SDS011;64294;49.176;16.626;2022-12-18T14:49:23;74.03;;;32.55;;
75680;SDS011;64294;49.176;16.626;2022-12-18T14:51:55;55.38;;;18.25;;
75680;SDS011;64294;49.176;16.626;2022-12-18T14:54:26;50.97;;;17.25;;
75680;SDS011;64294;49.176;16.626;2022-12-18T14:57:02;54.28;;;17.33;;
75680;SDS011;64294;49.176;16.626;2022-12-18T14:59:37;46.50;;;15.85;;
75680;SDS011;64294;49.176;16.626;2022-12-18T15:02:19;48.95;;;17.60;;
75680;SDS011;64294;49.176;16.626;2022-12-18T15:05:01;53.90;;;18.58;;
75680;SDS011;64294;49.176;16.626;2022-12-18T15:07:41;45.58;;;18.05;;
75680;SDS011;64294;49.176;16.626;2022-12-18T15:10:18;141.50;;;82.93;;
75680;SDS011;64294;49.176;16.626;2022-12-18T15:12:46;67.90;;;22.83;;
75680;SDS011;64294;49.176;16.626;2022-12-18T15:17:58;80.93;;;41.05;;
75680;SDS011;64294;49.176;16.626;2022-12-18T15:20:30;50.13;;;18.15;;
75680;SDS011;64294;49.176;16.626;2022-12-18T15:22:57;55.65;;;21.17;;
75680;SDS011;64294;49.176;16.626;2022-12-18T15:25:31;56.88;;;19.70;;
75680;SDS011;64294;49.176;16.626;2022-12-18T15:28:01;147.52;;;74.47;;
75680;SDS011;64294;49.176;16.626;2022-12-18T15:30:27;79.10;;;29.42;;
75680;SDS011;64294;49.176;16.626;2022-12-18T15:33:16;122.53;;;48.15;;
75680;SDS011;64294;49.176;16.626;2022-12-18T15:35:47;124.38;;;41.28;;
75680;SDS011;64294;49.176;16.626;2022-12-18T15:38:21;62.63;;;20.25;;
75680;SDS011;64294;49.176;16.626;2022-12-18T15:40:46;332.30;;;181.38;;
75680;SDS011;64294;49.176;16.626;2022-12-18T15:43:12;207.75;;;95.63;;
75680;SDS011;64294;49.176;16.626;2022-12-18T15:48:21;43.95;;;18.95;;
75680;SDS011;64294;49.176;16.626;2022-12-18T15:50:48;55.63;;;20.08;;
75680;SDS011;64294;49.176;16.626;2022-12-18T15:53:15;129.20;;;80.40;;
75680;SDS011;64294;49.176;16.626;2022-12-18T15:55:41;60.72;;;25.45;;
75680;SDS011;64294;49.176;16.626;2022-12-18T15:58:25;147.50;;;91.95;;
75680;SDS011;64294;49.176;16.626;2022-12-18T16:00:50;58.72;;;20.13;;
75680;SDS011;64294;49.176;16.626;2022-12-18T16:03:24;77.55;;;37.03;;
75680;SDS011;64294;49.176;16.626;2022-12-18T16:05:49;86.70;;;32.72;;
75680;SDS011;64294;49.176;16.626;2022-12-18T16:08:14;52.83;;;20.30;;
75680;SDS011;64294;49.176;16.626;2022-12-18T16:10:39;64.40;;;30.83;;
75680;SDS011;64294;49.176;16.626;2022-12-18T16:13:06;73.00;;;33.70;;
75680;SDS011;64294;49.176;16.626;2022-12-18T16:15:37;217.88;;;138.48;;
75680;SDS011;64294;49.176;16.626;2022-12-18T16:18:02;167.27;;;102.75;;
75680;SDS011;64294;49.176;16.626;2022-12-18T16:20:28;81.45;;;35.67;;
75680;SDS011;64294;49.176;16.626;2022-12-18T16:22:53;113.22;;;61.17;;
75680;SDS011;64294;49.176;16.626;2022-12-18T16:25:23;94.18;;;40.20;;
75680;SDS011;64294;49.176;16.626;2022-12-18T16:27:51;64.88;;;21.52;;
75680;SDS011;64294;49.176;16.626;2022-12-18T16:30:19;80.53;;;37.30;;
75680;SDS011;64294;49.176;16.626;2022-12-18T16:32:45;107.30;;;50.97;;
75680;SDS011;64294;49.176;16.626;2022-12-18T16:35:11;71.15;;;25.75;;
75680;SDS011;64294;49.176;16.626;2022-12-18T16:37:38;79.85;;;28.90;;
75680;SDS011;64294;49.176;16.626;2022-12-18T16:40:09;68.55;;;22.73;;
75680;SDS011;64294;49.176;16.626;2022-12-18T16:42:37;138.63;;;45.40;;
75680;SDS011;64294;49.176;16.626;2022-12-18T16:45:04;100.75;;;30.50;;
75680;SDS011;64294;49.176;16.626;2022-12-18T16:47:31;80.05;;;28.92;;
75680;SDS011;64294;49.176;16.626;2022-12-18T16:49:59;58.10;;;19.25;;
75680;SDS011;64294;49.176;16.626;2022-12-18T16:52:25;119.80;;;43.10;;
75680;SDS011;64294;49.176;16.626;2022-12-18T16:54:50;61.72;;;19.20;;
75680;SDS011;64294;49.176;16.626;2022-12-18T16:57:16;52.45;;;18.13;;
75680;SDS011;64294;49.176;16.626;2022-12-18T16:59:44;48.95;;;17.90;;
75680;SDS011;64294;49.176;16.626;2022-12-18T17:02:13;229.77;;;73.07;;
75680;SDS011;64294;49.176;16.626;2022-12-18T17:04:43;74.85;;;23.48;;
75680;SDS011;64294;49.176;16.626;2022-12-18T17:07:09;1399.07;;;575.15;;
75680;SDS011;64294;49.176;16.626;2022-12-18T17:09:35;1999.90;;;847.70;;
75680;SDS011;64294;49.176;16.626;2022-12-18T17:12:01;1963.88;;;678.00;;
75680;SDS011;64294;49.176;16.626;2022-12-18T17:14:26;1083.38;;;457.65;;
75680;SDS011;64294;49.176;16.626;2022-12-18T17:16:52;85.63;;;32.97;;
75680;SDS011;64294;49.176;16.626;2022-12-18T17:19:18;58.10;;;19.48;;
75680;SDS011;64294;49.176;16.626;2022-12-18T17:21:43;65.22;;;19.45;;
75680;SDS011;64294;49.176;16.626;2022-12-18T17:24:11;60.03;;;18.52;;
75680;SDS011;64294;49.176;16.626;2022-12-18T17:26:36;52.33;;;17.17;;
75680;SDS011;64294;49.176;16.626;2022-12-18T17:29:02;60.58;;;18.77;;
75680;SDS011;64294;49.176;16.626;2022-12-18T17:31:28;52.20;;;17.30;;
75680;SDS011;64294;49.176;16.626;2022-12-18T17:33:54;60.70;;;18.08;;
75680;SDS011;64294;49.176;16.626;2022-12-18T17:36:20;56.55;;;18.70;;
75680;SDS011;64294;49.176;16.626;2022-12-18T17:39:05;162.50;;;68.65;;
75680;SDS011;64294;49.176;16.626;2022-12-18T17:44:01;68.55;;;22.55;;
75680;SDS011;64294;49.176;16.626;2022-12-18T17:46:29;57.33;;;17.33;;
75680;SDS011;64294;49.176;16.626;2022-12-18T17:48:56;77.40;;;29.65;;
75680;SDS011;64294;49.176;16.626;2022-12-18T17:51:25;149.18;;;79.72;;
75680;SDS011;64294;49.176;16.626;2022-12-18T17:53:52;82.90;;;39.58;;
75680;SDS011;64294;49.176;16.626;2022-12-18T17:56:18;65.88;;;17.55;;
75680;SDS011;64294;49.176;16.626;2022-12-18T17:58:46;48.25;;;16.65;;
75680;SDS011;64294;49.176;16.626;2022-12-18T18:01:12;90.15;;;38.33;;
75680;SDS011;64294;49.176;16.626;2022-12-18T18:03:39;73.60;;;22.90;;
75680;SDS011;64294;49.176;16.626;2022-12-18T18:06:05;65.50;;;20.05;;
75680;SDS011;64294;49.176;16.626;2022-12-18T18:08:30;55.65;;;18.48;;
75680;SDS011;64294;49.176;16.626;2022-12-18T18:10:57;64.25;;;19.65;;
75680;SDS011;64294;49.176;16.626;2022-12-18T18:13:45;59.75;;;18.25;;
75680;SDS011;64294;49.176;16.626;2022-12-18T18:16:44;61.08;;;18.08;;
75680;SDS011;64294;49.176;16.626;2022-12-18T18:19:13;61.97;;;20.85;;
75680;SDS011;64294;49.176;16.626;2022-12-18T18:21:43;56.38;;;18.77;;
75680;SDS011;64294;49.176;16.626;2022-12-18T18:24:10;61.42;;;19.15;;
75680;SDS011;64294;49.176;16.626;2022-12-18T18:26:38;65.53;;;22.90;;
75680;SDS011;64294;49.176;16.626;2022-12-18T18:29:05;252.95;;;162.98;;
75680;SDS011;64294;49.176;16.626;2022-12-18T18:31:32;136.60;;;70.90;;
75680;SDS011;64294;49.176;16.626;2022-12-18T18:34:01;158.88;;;97.22;;
75680;SDS011;64294;49.176;16.626;2022-12-18T18:36:27;63.58;;;18.88;;
75680;SDS011;64294;49.176;16.626;2022-12-18T18:38:52;63.75;;;20.27;;
75680;SDS011;64294;49.176;16.626;2022-12-18T18:41:18;63.35;;;21.33;;
75680;SDS011;64294;49.176;16.626;2022-12-18T18:43:44;56.92;;;18.45;;
75680;SDS011;64294;49.176;16.626;2022-12-18T18:46:11;67.70;;;22.00;;
75680;SDS011;64294;49.176;16.626;2022-12-18T18:48:38;65.80;;;20.38;;
75680;SDS011;64294;49.176;16.626;2022-12-18T18:51:05;66.30;;;23.00;;
75680;SDS011;64294;49.176;16.626;2022-12-18T18:53:42;79.97;;;29.08;;
75680;SDS011;64294;49.176;16.626;2022-12-18T18:56:09;62.63;;;22.60;;
75680;SDS011;64294;49.176;16.626;2022-12-18T18:58:35;140.55;;;75.20;;
75680;SDS011;64294;49.176;16.626;2022-12-18T19:01:02;67.95;;;25.67;;
75680;SDS011;64294;49.176;16.626;2022-12-18T19:03:29;63.67;;;21.38;;
75680;SDS011;64294;49.176;16.626;2022-12-18T19:05:57;64.97;;;23.67;;
75680;SDS011;64294;49.176;16.626;2022-12-18T19:08:24;132.25;;;85.78;;
75680;SDS011;64294;49.176;16.626;2022-12-18T19:10:56;134.43;;;71.50;;
75680;SDS011;64294;49.176;16.626;2022-12-18T19:13:24;67.53;;;24.80;;
75680;SDS011;64294;49.176;16.626;2022-12-18T19:15:52;60.33;;;22.63;;
75680;SDS011;64294;49.176;16.626;2022-12-18T19:18:20;67.90;;;23.23;;
75680;SDS011;64294;49.176;16.626;2022-12-18T19:20:54;71.20;;;22.73;;
75680;SDS011;64294;49.176;16.626;2022-12-18T19:23:22;79.97;;;33.22;;
75680;SDS011;64294;49.176;16.626;2022-12-18T19:25:48;78.68;;;32.63;;
75680;SDS011;64294;49.176;16.626;2022-12-18T19:28:13;68.38;;;24.48;;
75680;SDS011;64294;49.176;16.626;2022-12-18T19:30:39;79.68;;;23.05;;
75680;SDS011;64294;49.176;16.626;2022-12-18T19:33:04;74.25;;;23.98;;
75680;SDS011;64294;49.176;16.626;2022-12-18T19:35:30;69.63;;;25.08;;
75680;SDS011;64294;49.176;16.626;2022-12-18T19:37:56;63.40;;;20.08;;
75680;SDS011;64294;49.176;16.626;2022-12-18T19:40:21;85.78;;;32.65;;
75680;SDS011;64294;49.176;16.626;2022-12-18T19:42:47;71.40;;;24.13;;
75680;SDS011;64294;49.176;16.626;2022-12-18T19:45:12;66.93;;;22.42;;
75680;SDS011;64294;49.176;16.626;2022-12-18T19:47:37;70.25;;;21.20;;
75680;SDS011;64294;49.176;16.626;2022-12-18T19:50:03;71.97;;;22.00;;
75680;SDS011;64294;49.176;16.626;2022-12-18T19:52:28;65.80;;;20.83;;
75680;SDS011;64294;49.176;16.626;2022-12-18T19:54:53;69.63;;;21.63;;
75680;SDS011;64294;49.176;16.626;2022-12-18T19:57:19;73.47;;;21.77;;
75680;SDS011;64294;49.176;16.626;2022-12-18T19:59:44;73.85;;;22.48;;
75680;SDS011;64294;49.176;16.626;2022-12-18T20:02:11;61.63;;;21.02;;
75680;SDS011;64294;49.176;16.626;2022-12-18T20:04:37;70.72;;;22.08;;
75680;SDS011;64294;49.176;16.626;2022-12-18T20:07:03;66.18;;;20.67;;
75680;SDS011;64294;49.176;16.626;2022-12-18T20:09:28;70.82;;;21.23;;
75680;SDS011;64294;49.176;16.626;2022-12-18T20:11:54;62.58;;;20.27;;
75680;SDS011;64294;49.176;16.626;2022-12-18T20:14:19;63.67;;;20.33;;
75680;SDS011;64294;49.176;16.626;2022-12-18T20:16:44;64.43;;;20.17;;
75680;SDS011;64294;49.176;16.626;2022-12-18T20:19:10;64.50;;;21.13;;
75680;SDS011;64294;49.176;16.626;2022-12-18T20:21:36;67.70;;;22.48;;
75680;SDS011;64294;49.176;16.626;2022-12-18T20:24:02;66.95;;;22.42;;
75680;SDS011;64294;49.176;16.626;2022-12-18T20:26:27;65.68;;;21.25;;
75680;SDS011;64294;49.176;16.626;2022-12-18T20:28:53;102.45;;;30.15;;
75680;SDS011;64294;49.176;16.626;2022-12-18T20:31:19;87.78;;;25.83;;
75680;SDS011;64294;49.176;16.626;2022-12-18T20:33:44;67.93;;;22.77;;
75680;SDS011;64294;49.176;16.626;2022-12-18T20:36:12;74.05;;;20.92;;
75680;SDS011;64294;49.176;16.626;2022-12-18T20:38:39;63.50;;;21.55;;
75680;SDS011;64294;49.176;16.626;2022-12-18T20:41:06;72.43;;;23.38;;
75680;SDS011;64294;49.176;16.626;2022-12-18T20:43:35;71.18;;;22.95;;
75680;SDS011;64294;49.176;16.626;2022-12-18T20:46:02;67.57;;;21.83;;
75680;SDS011;64294;49.176;16.626;2022-12-18T20:48:29;64.45;;;22.77;;
75680;SDS011;64294;49.176;16.626;2022-12-18T20:51:05;83.15;;;24.23;;
75680;SDS011;64294;49.176;16.626;2022-12-18T20:53:33;76.63;;;22.38;;
75680;SDS011;64294;49.176;16.626;2022-12-18T20:55:59;72.75;;;22.05;;
75680;SDS011;64294;49.176;16.626;2022-12-18T20:58:26;74.32;;;23.83;;
75680;SDS011;64294;49.176;16.626;2022-12-18T21:01:08;94.47;;;28.85;;
75680;SDS011;64294;49.176;16.626;2022-12-18T21:03:35;79.43;;;25.48;;
75680;SDS011;64294;49.176;16.626;2022-12-18T21:06:01;74.18;;;23.42;;
75680;SDS011;64294;49.176;16.626;2022-12-18T21:08:26;74.68;;;21.92;;
75680;SDS011;64294;49.176;16.626;2022-12-18T21:10:51;88.40;;;23.90;;
75680;SDS011;64294;49.176;16.626;2022-12-18T21:13:17;88.13;;;24.25;;
75680;SDS011;64294;49.176;16.626;2022-12-18T21:15:42;83.72;;;23.75;;
75680;SDS011;64294;49.176;16.626;2022-12-18T21:18:10;70.90;;;22.55;;
75680;SDS011;64294;49.176;16.626;2022-12-18T21:20:36;82.97;;;23.98;;
75680;SDS011;64294;49.176;16.626;2022-12-18T21:23:01;82.28;;;23.55;;
75680;SDS011;64294;49.176;16.626;2022-12-18T21:25:28;78.43;;;24.08;;
75680;SDS011;64294;49.176;16.626;2022-12-18T21:27:54;82.63;;;25.02;;
75680;SDS011;64294;49.176;16.626;2022-12-18T21:30:20;82.22;;;21.65;;
75680;SDS011;64294;49.176;16.626;2022-12-18T21:32:45;73.70;;;24.88;;
75680;SDS011;64294;49.176;16.626;2022-12-18T21:35:11;76.18;;;22.60;;
75680;SDS011;64294;49.176;16.626;2022-12-18T21:37:36;69.88;;;20.77;;
75680;SDS011;64294;49.176;16.626;2022-12-18T21:40:02;77.05;;;22.02;;
75680;SDS011;64294;49.176;16.626;2022-12-18T21:42:28;63.55;;;20.73;;
75680;SDS011;64294;49.176;16.626;2022-12-18T21:45:12;74.18;;;21.02;;
75680;SDS011;64294;49.176;16.626;2022-12-18T21:47:38;75.40;;;22.20;;
75680;SDS011;64294;49.176;16.626;2022-12-18T21:50:03;99.90;;;28.80;;
75680;SDS011;64294;49.176;16.626;2022-12-18T21:52:29;77.10;;;22.88;;
75680;SDS011;64294;49.176;16.626;2022-12-18T21:54:54;73.45;;;20.65;;
75680;SDS011;64294;49.176;16.626;2022-12-18T21:57:20;73.22;;;22.63;;
75680;SDS011;64294;49.176;16.626;2022-12-18T21:59:46;68.82;;;20.30;;
75680;SDS011;64294;49.176;16.626;2022-12-18T22:02:14;64.88;;;19.92;;
75680;SDS011;64294;49.176;16.626;2022-12-18T22:04:42;72.88;;;19.58;;
75680;SDS011;64294;49.176;16.626;2022-12-18T22:07:08;72.20;;;20.45;;
75680;SDS011;64294;49.176;16.626;2022-12-18T22:09:34;82.60;;;22.30;;
75680;SDS011;64294;49.176;16.626;2022-12-18T22:12:00;77.35;;;23.45;;
75680;SDS011;64294;49.176;16.626;2022-12-18T22:14:26;75.70;;;22.17;;
75680;SDS011;64294;49.176;16.626;2022-12-18T22:16:51;72.70;;;20.75;;
75680;SDS011;64294;49.176;16.626;2022-12-18T22:19:17;73.70;;;21.27;;
75680;SDS011;64294;49.176;16.626;2022-12-18T22:21:47;66.13;;;20.42;;
75680;SDS011;64294;49.176;16.626;2022-12-18T22:26:39;70.72;;;21.52;;
75680;SDS011;64294;49.176;16.626;2022-12-18T22:29:05;65.22;;;21.77;;
75680;SDS011;64294;49.176;16.626;2022-12-18T22:31:50;61.97;;;19.38;;
75680;SDS011;64294;49.176;16.626;2022-12-18T22:34:15;71.78;;;21.33;;
75680;SDS011;64294;49.176;16.626;2022-12-18T22:36:42;75.75;;;20.27;;
75680;SDS011;64294;49.176;16.626;2022-12-18T22:39:10;77.03;;;20.58;;
75680;SDS011;64294;49.176;16.626;2022-12-18T22:41:38;73.43;;;20.05;;
75680;SDS011;64294;49.176;16.626;2022-12-18T22:44:03;71.20;;;19.95;;
75680;SDS011;64294;49.176;16.626;2022-12-18T22:46:29;71.10;;;19.92;;
75680;SDS011;64294;49.176;16.626;2022-12-18T22:48:57;69.55;;;20.38;;
75680;SDS011;64294;49.176;16.626;2022-12-18T22:51:22;77.53;;;20.38;;
75680;SDS011;64294;49.176;16.626;2022-12-18T22:53:51;62.65;;;19.10;;
75680;SDS011;64294;49.176;16.626;2022-12-18T22:56:16;66.43;;;18.83;;
75680;SDS011;64294;49.176;16.626;2022-12-18T22:58:41;62.53;;;18.55;;
75680;SDS011;64294;49.176;16.626;2022-12-18T23:01:13;62.03;;;20.10;;
75680;SDS011;64294;49.176;16.626;2022-12-18T23:03:43;67.35;;;18.77;;
75680;SDS011;64294;49.176;16.626;2022-12-18T23:06:08;60.78;;;19.45;;
75680;SDS011;64294;49.176;16.626;2022-12-18T23:08:34;63.00;;;19.85;;
75680;SDS011;64294;49.176;16.626;2022-12-18T23:10:59;62.58;;;19.92;;
75680;SDS011;64294;49.176;16.626;2022-12-18T23:13:25;68.85;;;18.85;;
75680;SDS011;64294;49.176;16.626;2022-12-18T23:15:51;68.75;;;20.33;;
75680;SDS011;64294;49.176;16.626;2022-12-18T23:18:17;64.18;;;20.17;;
75680;SDS011;64294;49.176;16.626;2022-12-18T23:20:42;65.10;;;19.77;;
75680;SDS011;64294;49.176;16.626;2022-12-18T23:23:07;59.55;;;18.55;;
75680;SDS011;64294;49.176;16.626;2022-12-18T23:25:33;60.22;;;19.80;;